sensor_id;sensor_type;location;lat;lon;timestamp;P1;durP1;ratioP1;P2;durP2;ratioP2
69305;SDS011;56427;51.580;4.656;2023-03-14T00:01:18;9.48;;;1.92;;
69305;SDS011;56427;51.580;4.656;2023-03-14T00:03:45;10.38;;;1.60;;
69305;SDS011;56427;51.580;4.656;2023-03-14T00:06:11;7.93;;;1.40;;
69305;SDS011;56427;51.580;4.656;2023-03-14T00:08:38;7.03;;;1.30;;
69305;SDS011;56427;51.580;4.656;2023-03-14T00:11:05;7.95;;;1.20;;
69305;SDS011;56427;51.580;4.656;2023-03-14T00:13:34;9.95;;;1.40;;
69305;SDS011;56427;51.580;4.656;2023-03-14T00:16:06;9.53;;;1.37;;
69305;SDS011;56427;51.580;4.656;2023-03-14T00:18:36;7.82;;;1.30;;
69305;SDS011;56427;51.580;4.656;2023-03-14T00:21:02;9.77;;;1.70;;
69305;SDS011;56427;51.580;4.656;2023-03-14T00:23:29;7.10;;;1.55;;
69305;SDS011;56427;51.580;4.656;2023-03-14T00:26:03;10.07;;;1.40;;
69305;SDS011;56427;51.580;4.656;2023-03-14T00:28:31;9.57;;;1.70;;
69305;SDS011;56427;51.580;4.656;2023-03-14T00:30:56;11.27;;;1.73;;
69305;SDS011;56427;51.580;4.656;2023-03-14T00:33:25;12.40;;;1.50;;
69305;SDS011;56427;51.580;4.656;2023-03-14T00:35:57;8.73;;;1.93;;
69305;SDS011;56427;51.580;4.656;2023-03-14T00:38:30;6.57;;;1.50;;
69305;SDS011;56427;51.580;4.656;2023-03-14T00:40:57;10.73;;;1.77;;
69305;SDS011;56427;51.580;4.656;2023-03-14T00:43:23;6.87;;;1.33;;
69305;SDS011;56427;51.580;4.656;2023-03-14T00:45:49;8.13;;;1.60;;
69305;SDS011;56427;51.580;4.656;2023-03-14T00:48:16;9.63;;;1.60;;
69305;SDS011;56427;51.580;4.656;2023-03-14T00:50:42;5.77;;;1.60;;
69305;SDS011;56427;51.580;4.656;2023-03-14T00:53:07;10.50;;;1.58;;
69305;SDS011;56427;51.580;4.656;2023-03-14T00:55:36;8.10;;;2.13;;
69305;SDS011;56427;51.580;4.656;2023-03-14T00:58:02;8.07;;;1.88;;
69305;SDS011;56427;51.580;4.656;2023-03-14T01:00:27;10.50;;;2.10;;
69305;SDS011;56427;51.580;4.656;2023-03-14T01:02:53;8.93;;;2.57;;
69305;SDS011;56427;51.580;4.656;2023-03-14T01:05:18;5.83;;;1.60;;
69305;SDS011;56427;51.580;4.656;2023-03-14T01:07:43;9.57;;;1.90;;
69305;SDS011;56427;51.580;4.656;2023-03-14T01:10:09;9.93;;;1.70;;
69305;SDS011;56427;51.580;4.656;2023-03-14T01:12:35;8.32;;;1.42;;
69305;SDS011;56427;51.580;4.656;2023-03-14T01:15:00;7.37;;;1.57;;
69305;SDS011;56427;51.580;4.656;2023-03-14T01:17:26;6.38;;;1.23;;
69305;SDS011;56427;51.580;4.656;2023-03-14T01:19:54;6.73;;;1.43;;
69305;SDS011;56427;51.580;4.656;2023-03-14T01:22:19;5.72;;;1.17;;
69305;SDS011;56427;51.580;4.656;2023-03-14T01:24:46;9.10;;;1.70;;
69305;SDS011;56427;51.580;4.656;2023-03-14T01:27:12;8.15;;;1.30;;
69305;SDS011;56427;51.580;4.656;2023-03-14T01:29:37;7.47;;;1.50;;
69305;SDS011;56427;51.580;4.656;2023-03-14T01:32:03;10.73;;;1.40;;
69305;SDS011;56427;51.580;4.656;2023-03-14T01:34:28;10.98;;;1.58;;
69305;SDS011;56427;51.580;4.656;2023-03-14T01:36:54;7.70;;;1.90;;
69305;SDS011;56427;51.580;4.656;2023-03-14T01:39:19;8.48;;;1.40;;
69305;SDS011;56427;51.580;4.656;2023-03-14T01:41:44;9.83;;;2.27;;
69305;SDS011;56427;51.580;4.656;2023-03-14T01:44:11;11.47;;;1.70;;
69305;SDS011;56427;51.580;4.656;2023-03-14T01:46:38;9.13;;;1.60;;
69305;SDS011;56427;51.580;4.656;2023-03-14T01:54:54;10.95;;;1.70;;
69305;SDS011;56427;51.580;4.656;2023-03-14T01:57:24;7.75;;;1.75;;
69305;SDS011;56427;51.580;4.656;2023-03-14T02:02:25;12.47;;;1.63;;
69305;SDS011;56427;51.580;4.656;2023-03-14T02:04:52;10.75;;;1.60;;
69305;SDS011;56427;51.580;4.656;2023-03-14T02:07:25;8.98;;;1.95;;
69305;SDS011;56427;51.580;4.656;2023-03-14T02:10:01;9.10;;;1.65;;
69305;SDS011;56427;51.580;4.656;2023-03-14T02:12:28;7.43;;;1.60;;
69305;SDS011;56427;51.580;4.656;2023-03-14T02:14:54;8.10;;;1.50;;
69305;SDS011;56427;51.580;4.656;2023-03-14T02:17:19;12.83;;;1.80;;
69305;SDS011;56427;51.580;4.656;2023-03-14T02:20:00;10.60;;;1.80;;
69305;SDS011;56427;51.580;4.656;2023-03-14T02:22:35;10.40;;;1.35;;
69305;SDS011;56427;51.580;4.656;2023-03-14T02:27:34;8.20;;;1.30;;
69305;SDS011;56427;51.580;4.656;2023-03-14T02:30:03;11.85;;;2.03;;
69305;SDS011;56427;51.580;4.656;2023-03-14T02:32:31;10.45;;;2.33;;
69305;SDS011;56427;51.580;4.656;2023-03-14T02:35:00;9.75;;;1.92;;
69305;SDS011;56427;51.580;4.656;2023-03-14T02:37:33;10.63;;;1.90;;
69305;SDS011;56427;51.580;4.656;2023-03-14T02:40:02;11.70;;;2.00;;
69305;SDS011;56427;51.580;4.656;2023-03-14T02:42:29;14.13;;;1.95;;
69305;SDS011;56427;51.580;4.656;2023-03-14T02:45:41;10.20;;;2.00;;
69305;SDS011;56427;51.580;4.656;2023-03-14T02:47:42;10.73;;;1.97;;
69305;SDS011;56427;51.580;4.656;2023-03-14T02:50:22;10.70;;;1.80;;
69305;SDS011;56427;51.580;4.656;2023-03-14T02:52:52;10.88;;;2.20;;
69305;SDS011;56427;51.580;4.656;2023-03-14T02:55:21;6.50;;;1.53;;
69305;SDS011;56427;51.580;4.656;2023-03-14T02:57:46;10.40;;;1.77;;
69305;SDS011;56427;51.580;4.656;2023-03-14T03:00:12;12.13;;;2.23;;
69305;SDS011;56427;51.580;4.656;2023-03-14T03:02:38;7.93;;;1.30;;
69305;SDS011;56427;51.580;4.656;2023-03-14T03:05:03;12.38;;;1.50;;
69305;SDS011;56427;51.580;4.656;2023-03-14T03:07:29;10.43;;;1.50;;
69305;SDS011;56427;51.580;4.656;2023-03-14T03:09:55;10.80;;;1.80;;
69305;SDS011;56427;51.580;4.656;2023-03-14T03:12:20;11.53;;;2.00;;
69305;SDS011;56427;51.580;4.656;2023-03-14T03:14:45;7.23;;;1.77;;
69305;SDS011;56427;51.580;4.656;2023-03-14T03:17:11;8.47;;;2.00;;
69305;SDS011;56427;51.580;4.656;2023-03-14T03:19:36;9.10;;;1.50;;
69305;SDS011;56427;51.580;4.656;2023-03-14T03:22:01;13.70;;;2.27;;
69305;SDS011;56427;51.580;4.656;2023-03-14T03:24:27;9.70;;;1.53;;
69305;SDS011;56427;51.580;4.656;2023-03-14T03:26:52;10.47;;;2.50;;
69305;SDS011;56427;51.580;4.656;2023-03-14T03:29:18;12.80;;;1.80;;
69305;SDS011;56427;51.580;4.656;2023-03-14T03:31:43;7.03;;;1.43;;
69305;SDS011;56427;51.580;4.656;2023-03-14T03:34:10;10.10;;;2.22;;
69305;SDS011;56427;51.580;4.656;2023-03-14T03:36:36;7.23;;;1.47;;
69305;SDS011;56427;51.580;4.656;2023-03-14T03:39:01;9.77;;;1.60;;
69305;SDS011;56427;51.580;4.656;2023-03-14T03:41:27;8.77;;;1.50;;
69305;SDS011;56427;51.580;4.656;2023-03-14T03:43:52;8.03;;;1.47;;
69305;SDS011;56427;51.580;4.656;2023-03-14T03:46:19;8.27;;;1.30;;
69305;SDS011;56427;51.580;4.656;2023-03-14T03:48:44;6.53;;;1.27;;
69305;SDS011;56427;51.580;4.656;2023-03-14T03:51:13;11.60;;;2.23;;
69305;SDS011;56427;51.580;4.656;2023-03-14T03:53:40;8.25;;;1.23;;
69305;SDS011;56427;51.580;4.656;2023-03-14T03:56:06;6.57;;;1.10;;
69305;SDS011;56427;51.580;4.656;2023-03-14T03:58:31;6.07;;;1.00;;
69305;SDS011;56427;51.580;4.656;2023-03-14T04:00:57;5.93;;;1.20;;
69305;SDS011;56427;51.580;4.656;2023-03-14T04:03:22;5.43;;;1.33;;
69305;SDS011;56427;51.580;4.656;2023-03-14T04:05:57;7.40;;;1.10;;
69305;SDS011;56427;51.580;4.656;2023-03-14T04:08:30;5.45;;;1.00;;
69305;SDS011;56427;51.580;4.656;2023-03-14T04:10:56;4.10;;;0.90;;
69305;SDS011;56427;51.580;4.656;2023-03-14T04:13:22;8.05;;;1.10;;
69305;SDS011;56427;51.580;4.656;2023-03-14T04:15:48;7.85;;;1.10;;
69305;SDS011;56427;51.580;4.656;2023-03-14T04:18:14;6.37;;;1.40;;
69305;SDS011;56427;51.580;4.656;2023-03-14T04:20:40;6.53;;;1.55;;
69305;SDS011;56427;51.580;4.656;2023-03-14T04:23:05;9.50;;;1.30;;
69305;SDS011;56427;51.580;4.656;2023-03-14T04:25:30;5.77;;;1.27;;
69305;SDS011;56427;51.580;4.656;2023-03-14T04:27:56;8.00;;;2.00;;
69305;SDS011;56427;51.580;4.656;2023-03-14T04:30:21;10.30;;;2.20;;
69305;SDS011;56427;51.580;4.656;2023-03-14T04:32:46;5.70;;;1.80;;
69305;SDS011;56427;51.580;4.656;2023-03-14T04:35:12;9.87;;;2.93;;
69305;SDS011;56427;51.580;4.656;2023-03-14T04:37:37;11.30;;;2.60;;
69305;SDS011;56427;51.580;4.656;2023-03-14T04:40:03;10.17;;;2.77;;
69305;SDS011;56427;51.580;4.656;2023-03-14T04:42:31;7.70;;;2.78;;
69305;SDS011;56427;51.580;4.656;2023-03-14T04:44:56;5.83;;;2.90;;
69305;SDS011;56427;51.580;4.656;2023-03-14T04:47:22;8.97;;;3.20;;
69305;SDS011;56427;51.580;4.656;2023-03-14T04:49:47;5.88;;;2.90;;
69305;SDS011;56427;51.580;4.656;2023-03-14T04:52:12;8.33;;;3.37;;
69305;SDS011;56427;51.580;4.656;2023-03-14T04:54:38;6.50;;;3.50;;
69305;SDS011;56427;51.580;4.656;2023-03-14T04:57:03;9.30;;;3.20;;
69305;SDS011;56427;51.580;4.656;2023-03-14T04:59:28;7.47;;;3.53;;
69305;SDS011;56427;51.580;4.656;2023-03-14T05:01:54;6.67;;;3.73;;
69305;SDS011;56427;51.580;4.656;2023-03-14T05:04:19;9.87;;;3.90;;
69305;SDS011;56427;51.580;4.656;2023-03-14T05:06:44;10.30;;;3.90;;
69305;SDS011;56427;51.580;4.656;2023-03-14T05:09:10;7.20;;;4.10;;
69305;SDS011;56427;51.580;4.656;2023-03-14T05:11:35;9.90;;;4.03;;
69305;SDS011;56427;51.580;4.656;2023-03-14T05:14:00;11.37;;;4.13;;
69305;SDS011;56427;51.580;4.656;2023-03-14T05:16:26;9.00;;;3.90;;
69305;SDS011;56427;51.580;4.656;2023-03-14T05:18:51;8.50;;;3.70;;
69305;SDS011;56427;51.580;4.656;2023-03-14T05:21:16;12.50;;;4.27;;
69305;SDS011;56427;51.580;4.656;2023-03-14T05:23:42;7.07;;;3.43;;
69305;SDS011;56427;51.580;4.656;2023-03-14T05:26:07;7.60;;;3.33;;
69305;SDS011;56427;51.580;4.656;2023-03-14T05:28:32;12.10;;;4.88;;
69305;SDS011;56427;51.580;4.656;2023-03-14T05:30:58;10.90;;;3.92;;
69305;SDS011;56427;51.580;4.656;2023-03-14T05:33:23;9.23;;;4.10;;
69305;SDS011;56427;51.580;4.656;2023-03-14T05:35:49;8.00;;;4.10;;
69305;SDS011;56427;51.580;4.656;2023-03-14T05:38:14;10.35;;;4.47;;
69305;SDS011;56427;51.580;4.656;2023-03-14T05:40:40;11.13;;;4.00;;
69305;SDS011;56427;51.580;4.656;2023-03-14T05:43:05;11.53;;;4.60;;
69305;SDS011;56427;51.580;4.656;2023-03-14T05:45:32;17.80;;;4.88;;
69305;SDS011;56427;51.580;4.656;2023-03-14T05:47:58;9.53;;;4.97;;
69305;SDS011;56427;51.580;4.656;2023-03-14T05:50:24;16.85;;;5.53;;
69305;SDS011;56427;51.580;4.656;2023-03-14T05:52:49;14.20;;;5.63;;
69305;SDS011;56427;51.580;4.656;2023-03-14T05:55:15;11.57;;;5.73;;
69305;SDS011;56427;51.580;4.656;2023-03-14T05:57:40;14.33;;;6.80;;
69305;SDS011;56427;51.580;4.656;2023-03-14T06:00:05;19.07;;;7.60;;
69305;SDS011;56427;51.580;4.656;2023-03-14T06:02:31;18.33;;;6.82;;
69305;SDS011;56427;51.580;4.656;2023-03-14T06:04:57;18.00;;;7.43;;
69305;SDS011;56427;51.580;4.656;2023-03-14T06:07:22;13.53;;;7.30;;
69305;SDS011;56427;51.580;4.656;2023-03-14T06:09:47;15.50;;;7.80;;
69305;SDS011;56427;51.580;4.656;2023-03-14T06:12:13;23.05;;;7.93;;
69305;SDS011;56427;51.580;4.656;2023-03-14T06:14:38;15.67;;;8.73;;
69305;SDS011;56427;51.580;4.656;2023-03-14T06:17:03;17.47;;;9.43;;
69305;SDS011;56427;51.580;4.656;2023-03-14T06:19:29;17.90;;;9.43;;
69305;SDS011;56427;51.580;4.656;2023-03-14T06:21:54;19.33;;;9.90;;
69305;SDS011;56427;51.580;4.656;2023-03-14T06:24:19;23.03;;;11.40;;
69305;SDS011;56427;51.580;4.656;2023-03-14T06:26:45;21.43;;;12.53;;
69305;SDS011;56427;51.580;4.656;2023-03-14T06:29:10;8.73;;;4.37;;
69305;SDS011;56427;51.580;4.656;2023-03-14T06:31:35;8.15;;;1.90;;
69305;SDS011;56427;51.580;4.656;2023-03-14T06:34:01;4.60;;;1.53;;
69305;SDS011;56427;51.580;4.656;2023-03-14T06:36:26;6.17;;;1.17;;
69305;SDS011;56427;51.580;4.656;2023-03-14T06:38:52;5.40;;;1.40;;
69305;SDS011;56427;51.580;4.656;2023-03-14T06:41:17;5.30;;;1.50;;
69305;SDS011;56427;51.580;4.656;2023-03-14T06:43:43;8.07;;;1.70;;
69305;SDS011;56427;51.580;4.656;2023-03-14T06:46:08;5.50;;;1.77;;
69305;SDS011;56427;51.580;4.656;2023-03-14T06:48:34;8.43;;;1.90;;
69305;SDS011;56427;51.580;4.656;2023-03-14T06:50:59;8.30;;;1.87;;
69305;SDS011;56427;51.580;4.656;2023-03-14T06:53:24;8.75;;;2.10;;
69305;SDS011;56427;51.580;4.656;2023-03-14T06:55:50;11.83;;;2.17;;
69305;SDS011;56427;51.580;4.656;2023-03-14T06:58:15;11.60;;;3.23;;
69305;SDS011;56427;51.580;4.656;2023-03-14T07:00:41;9.10;;;3.05;;
69305;SDS011;56427;51.580;4.656;2023-03-14T07:03:07;6.68;;;2.40;;
69305;SDS011;56427;51.580;4.656;2023-03-14T07:05:32;5.53;;;2.47;;
69305;SDS011;56427;51.580;4.656;2023-03-14T07:07:57;9.40;;;2.20;;
69305;SDS011;56427;51.580;4.656;2023-03-14T07:10:23;9.88;;;2.20;;
69305;SDS011;56427;51.580;4.656;2023-03-14T07:12:48;8.70;;;1.73;;
69305;SDS011;56427;51.580;4.656;2023-03-14T07:15:16;12.30;;;2.17;;
69305;SDS011;56427;51.580;4.656;2023-03-14T07:17:41;9.38;;;2.10;;
69305;SDS011;56427;51.580;4.656;2023-03-14T07:20:07;7.73;;;1.43;;
69305;SDS011;56427;51.580;4.656;2023-03-14T07:22:34;5.72;;;1.23;;
69305;SDS011;56427;51.580;4.656;2023-03-14T07:24:59;11.07;;;1.90;;
69305;SDS011;56427;51.580;4.656;2023-03-14T07:27:24;10.90;;;2.07;;
69305;SDS011;56427;51.580;4.656;2023-03-14T07:29:50;16.87;;;2.90;;
69305;SDS011;56427;51.580;4.656;2023-03-14T07:32:15;9.17;;;2.10;;
69305;SDS011;56427;51.580;4.656;2023-03-14T07:34:41;9.13;;;2.25;;
69305;SDS011;56427;51.580;4.656;2023-03-14T07:37:07;8.60;;;2.20;;
69305;SDS011;56427;51.580;4.656;2023-03-14T07:39:32;7.83;;;1.43;;
69305;SDS011;56427;51.580;4.656;2023-03-14T07:41:58;5.00;;;1.20;;
69305;SDS011;56427;51.580;4.656;2023-03-14T07:44:23;3.92;;;1.00;;
69305;SDS011;56427;51.580;4.656;2023-03-14T07:46:49;8.97;;;1.20;;
69305;SDS011;56427;51.580;4.656;2023-03-14T07:49:14;8.33;;;1.13;;
69305;SDS011;56427;51.580;4.656;2023-03-14T07:51:40;8.87;;;1.77;;
69305;SDS011;56427;51.580;4.656;2023-03-14T07:54:05;10.38;;;1.63;;
69305;SDS011;56427;51.580;4.656;2023-03-14T07:56:30;7.75;;;2.03;;
69305;SDS011;56427;51.580;4.656;2023-03-14T07:58:56;11.43;;;2.33;;
69305;SDS011;56427;51.580;4.656;2023-03-14T08:01:22;10.68;;;2.65;;
69305;SDS011;56427;51.580;4.656;2023-03-14T08:03:47;10.73;;;2.50;;
69305;SDS011;56427;51.580;4.656;2023-03-14T08:06:13;10.00;;;1.83;;
69305;SDS011;56427;51.580;4.656;2023-03-14T08:08:38;7.43;;;1.57;;
69305;SDS011;56427;51.580;4.656;2023-03-14T08:11:05;9.32;;;1.30;;
69305;SDS011;56427;51.580;4.656;2023-03-14T08:13:33;7.23;;;1.53;;
69305;SDS011;56427;51.580;4.656;2023-03-14T08:15:59;6.43;;;1.45;;
69305;SDS011;56427;51.580;4.656;2023-03-14T08:18:24;7.77;;;1.90;;
69305;SDS011;56427;51.580;4.656;2023-03-14T08:20:50;7.13;;;1.20;;
69305;SDS011;56427;51.580;4.656;2023-03-14T08:23:15;7.73;;;1.30;;
69305;SDS011;56427;51.580;4.656;2023-03-14T08:25:41;9.47;;;1.20;;
69305;SDS011;56427;51.580;4.656;2023-03-14T08:28:06;4.67;;;1.10;;
69305;SDS011;56427;51.580;4.656;2023-03-14T08:30:31;6.47;;;1.00;;
69305;SDS011;56427;51.580;4.656;2023-03-14T08:32:57;4.20;;;1.00;;
69305;SDS011;56427;51.580;4.656;2023-03-14T08:35:23;5.78;;;1.15;;
69305;SDS011;56427;51.580;4.656;2023-03-14T08:37:50;7.90;;;1.20;;
69305;SDS011;56427;51.580;4.656;2023-03-14T08:40:16;7.32;;;1.23;;
69305;SDS011;56427;51.580;4.656;2023-03-14T08:42:42;5.50;;;1.10;;
69305;SDS011;56427;51.580;4.656;2023-03-14T08:45:09;10.50;;;1.57;;
69305;SDS011;56427;51.580;4.656;2023-03-14T08:47:37;7.10;;;1.48;;
69305;SDS011;56427;51.580;4.656;2023-03-14T08:50:03;6.18;;;1.40;;
69305;SDS011;56427;51.580;4.656;2023-03-14T08:52:30;8.95;;;1.52;;
69305;SDS011;56427;51.580;4.656;2023-03-14T08:54:56;11.18;;;2.92;;
69305;SDS011;56427;51.580;4.656;2023-03-14T08:57:21;9.80;;;1.67;;
69305;SDS011;56427;51.580;4.656;2023-03-14T08:59:47;8.85;;;1.60;;
69305;SDS011;56427;51.580;4.656;2023-03-14T09:02:12;12.87;;;2.00;;
69305;SDS011;56427;51.580;4.656;2023-03-14T09:04:38;7.93;;;1.40;;
69305;SDS011;56427;51.580;4.656;2023-03-14T09:07:03;6.60;;;0.90;;
69305;SDS011;56427;51.580;4.656;2023-03-14T09:09:29;5.17;;;1.17;;
69305;SDS011;56427;51.580;4.656;2023-03-14T09:11:55;5.65;;;1.23;;
69305;SDS011;56427;51.580;4.656;2023-03-14T09:14:21;5.88;;;1.27;;
69305;SDS011;56427;51.580;4.656;2023-03-14T09:16:47;6.23;;;1.20;;
69305;SDS011;56427;51.580;4.656;2023-03-14T09:19:12;6.57;;;1.40;;
69305;SDS011;56427;51.580;4.656;2023-03-14T09:21:37;6.70;;;1.87;;
69305;SDS011;56427;51.580;4.656;2023-03-14T09:24:05;7.50;;;1.50;;
69305;SDS011;56427;51.580;4.656;2023-03-14T09:26:31;5.70;;;1.20;;
69305;SDS011;56427;51.580;4.656;2023-03-14T09:28:56;8.60;;;1.60;;
69305;SDS011;56427;51.580;4.656;2023-03-14T09:31:22;4.77;;;1.90;;
69305;SDS011;56427;51.580;4.656;2023-03-14T09:33:47;7.07;;;1.90;;
69305;SDS011;56427;51.580;4.656;2023-03-14T09:36:13;4.83;;;1.40;;
69305;SDS011;56427;51.580;4.656;2023-03-14T09:38:38;4.55;;;1.00;;
69305;SDS011;56427;51.580;4.656;2023-03-14T09:41:10;5.45;;;1.10;;
69305;SDS011;56427;51.580;4.656;2023-03-14T09:43:40;5.85;;;1.63;;
69305;SDS011;56427;51.580;4.656;2023-03-14T09:46:07;5.75;;;1.40;;
69305;SDS011;56427;51.580;4.656;2023-03-14T09:48:35;6.95;;;1.10;;
69305;SDS011;56427;51.580;4.656;2023-03-14T09:51:02;5.87;;;1.40;;
69305;SDS011;56427;51.580;4.656;2023-03-14T09:53:41;10.95;;;1.70;;
69305;SDS011;56427;51.580;4.656;2023-03-14T09:56:11;7.32;;;1.60;;
69305;SDS011;56427;51.580;4.656;2023-03-14T09:58:40;9.23;;;1.27;;
69305;SDS011;56427;51.580;4.656;2023-03-14T10:01:09;9.93;;;1.80;;
69305;SDS011;56427;51.580;4.656;2023-03-14T10:03:38;11.13;;;2.05;;
69305;SDS011;56427;51.580;4.656;2023-03-14T10:06:10;11.27;;;1.65;;
69305;SDS011;56427;51.580;4.656;2023-03-14T10:08:41;9.10;;;1.50;;
69305;SDS011;56427;51.580;4.656;2023-03-14T10:11:10;7.18;;;1.73;;
69305;SDS011;56427;51.580;4.656;2023-03-14T10:13:46;9.45;;;1.60;;
69305;SDS011;56427;51.580;4.656;2023-03-14T10:16:15;11.13;;;1.75;;
69305;SDS011;56427;51.580;4.656;2023-03-14T10:18:43;10.60;;;1.67;;
69305;SDS011;56427;51.580;4.656;2023-03-14T10:21:26;12.32;;;1.50;;
69305;SDS011;56427;51.580;4.656;2023-03-14T10:23:53;10.40;;;1.60;;
69305;SDS011;56427;51.580;4.656;2023-03-14T10:26:23;8.52;;;1.48;;
69305;SDS011;56427;51.580;4.656;2023-03-14T10:28:52;9.83;;;2.50;;
69305;SDS011;56427;51.580;4.656;2023-03-14T10:31:18;8.52;;;1.42;;
69305;SDS011;56427;51.580;4.656;2023-03-14T10:33:57;8.13;;;1.75;;
69305;SDS011;56427;51.580;4.656;2023-03-14T10:36:27;14.93;;;1.90;;
69305;SDS011;56427;51.580;4.656;2023-03-14T10:38:57;7.65;;;1.48;;
69305;SDS011;56427;51.580;4.656;2023-03-14T10:41:50;8.50;;;1.57;;
69305;SDS011;56427;51.580;4.656;2023-03-14T10:44:19;14.35;;;1.50;;
69305;SDS011;56427;51.580;4.656;2023-03-14T10:46:55;14.30;;;1.92;;
69305;SDS011;56427;51.580;4.656;2023-03-14T10:49:27;8.27;;;1.52;;
69305;SDS011;56427;51.580;4.656;2023-03-14T10:52:02;8.60;;;1.90;;
69305;SDS011;56427;51.580;4.656;2023-03-14T10:54:48;12.27;;;1.90;;
69305;SDS011;56427;51.580;4.656;2023-03-14T10:57:23;16.17;;;1.98;;
69305;SDS011;56427;51.580;4.656;2023-03-14T10:59:48;14.98;;;2.13;;
69305;SDS011;56427;51.580;4.656;2023-03-14T11:05:24;18.40;;;2.40;;
69305;SDS011;56427;51.580;4.656;2023-03-14T11:08:07;21.23;;;2.40;;
69305;SDS011;56427;51.580;4.656;2023-03-14T11:10:42;13.53;;;2.20;;
69305;SDS011;56427;51.580;4.656;2023-03-14T11:15:57;14.18;;;2.42;;
69305;SDS011;56427;51.580;4.656;2023-03-14T11:29:35;14.00;;;2.25;;
69305;SDS011;56427;51.580;4.656;2023-03-14T11:32:02;18.85;;;2.25;;
69305;SDS011;56427;51.580;4.656;2023-03-14T11:34:42;17.70;;;2.78;;
69305;SDS011;56427;51.580;4.656;2023-03-14T11:42:59;24.05;;;3.67;;
69305;SDS011;56427;51.580;4.656;2023-03-14T11:45:41;19.80;;;3.05;;
69305;SDS011;56427;51.580;4.656;2023-03-14T11:50:39;18.93;;;2.90;;
69305;SDS011;56427;51.580;4.656;2023-03-14T11:53:09;18.52;;;3.38;;
69305;SDS011;56427;51.580;4.656;2023-03-14T11:55:40;18.45;;;2.45;;
69305;SDS011;56427;51.580;4.656;2023-03-14T11:58:26;20.17;;;3.00;;
69305;SDS011;56427;51.580;4.656;2023-03-14T12:00:54;21.95;;;2.88;;
69305;SDS011;56427;51.580;4.656;2023-03-14T12:09:05;21.60;;;2.83;;
69305;SDS011;56427;51.580;4.656;2023-03-14T12:14:17;12.77;;;2.22;;
69305;SDS011;56427;51.580;4.656;2023-03-14T12:16:46;22.23;;;2.27;;
69305;SDS011;56427;51.580;4.656;2023-03-14T12:21:54;12.55;;;2.20;;
69305;SDS011;56427;51.580;4.656;2023-03-14T12:24:28;29.35;;;3.38;;
69305;SDS011;56427;51.580;4.656;2023-03-14T12:26:57;15.57;;;2.20;;
69305;SDS011;56427;51.580;4.656;2023-03-14T12:29:25;11.00;;;1.70;;
69305;SDS011;56427;51.580;4.656;2023-03-14T12:34:26;10.35;;;1.60;;
69305;SDS011;56427;51.580;4.656;2023-03-14T12:42:10;10.37;;;1.50;;
69305;SDS011;56427;51.580;4.656;2023-03-14T12:44:38;8.35;;;1.77;;
69305;SDS011;56427;51.580;4.656;2023-03-14T12:49:44;8.98;;;1.77;;
69305;SDS011;56427;51.580;4.656;2023-03-14T12:52:15;12.50;;;1.85;;
69305;SDS011;56427;51.580;4.656;2023-03-14T12:54:42;8.17;;;1.57;;
69305;SDS011;56427;51.580;4.656;2023-03-14T12:57:25;10.40;;;1.70;;
69305;SDS011;56427;51.580;4.656;2023-03-14T12:59:58;8.07;;;1.50;;
69305;SDS011;56427;51.580;4.656;2023-03-14T13:02:28;13.00;;;1.55;;
69305;SDS011;56427;51.580;4.656;2023-03-14T13:10:19;12.07;;;1.65;;
69305;SDS011;56427;51.580;4.656;2023-03-14T13:15:40;5.43;;;1.42;;
69305;SDS011;56427;51.580;4.656;2023-03-14T13:18:15;11.10;;;1.58;;
69305;SDS011;56427;51.580;4.656;2023-03-14T13:23:58;10.57;;;1.75;;
69305;SDS011;56427;51.580;4.656;2023-03-14T13:26:31;8.30;;;1.20;;
69305;SDS011;56427;51.580;4.656;2023-03-14T13:29:18;9.88;;;1.98;;
69305;SDS011;56427;51.580;4.656;2023-03-14T13:31:46;7.15;;;1.55;;
69305;SDS011;56427;51.580;4.656;2023-03-14T13:34:13;12.20;;;2.03;;
69305;SDS011;56427;51.580;4.656;2023-03-14T13:36:38;7.57;;;1.20;;
69305;SDS011;56427;51.580;4.656;2023-03-14T13:39:04;7.90;;;1.27;;
69305;SDS011;56427;51.580;4.656;2023-03-14T13:41:37;12.52;;;1.65;;
69305;SDS011;56427;51.580;4.656;2023-03-14T13:44:05;9.67;;;1.73;;
69305;SDS011;56427;51.580;4.656;2023-03-14T13:46:34;6.97;;;1.30;;
69305;SDS011;56427;51.580;4.656;2023-03-14T13:49:04;10.63;;;1.70;;
69305;SDS011;56427;51.580;4.656;2023-03-14T13:51:32;13.85;;;1.95;;
69305;SDS011;56427;51.580;4.656;2023-03-14T13:53:58;8.80;;;1.30;;
69305;SDS011;56427;51.580;4.656;2023-03-14T13:56:28;9.90;;;2.10;;
69305;SDS011;56427;51.580;4.656;2023-03-14T13:58:55;9.05;;;1.42;;
69305;SDS011;56427;51.580;4.656;2023-03-14T14:03:48;13.47;;;1.67;;
69305;SDS011;56427;51.580;4.656;2023-03-14T14:06:37;12.82;;;1.73;;
69305;SDS011;56427;51.580;4.656;2023-03-14T14:09:16;11.40;;;1.63;;
69305;SDS011;56427;51.580;4.656;2023-03-14T14:11:51;9.57;;;1.40;;
69305;SDS011;56427;51.580;4.656;2023-03-14T14:14:21;6.63;;;0.93;;
69305;SDS011;56427;51.580;4.656;2023-03-14T14:17:01;6.60;;;1.20;;
69305;SDS011;56427;51.580;4.656;2023-03-14T14:19:31;7.68;;;1.27;;
69305;SDS011;56427;51.580;4.656;2023-03-14T14:21:58;9.43;;;1.23;;
69305;SDS011;56427;51.580;4.656;2023-03-14T14:24:27;11.05;;;1.60;;
69305;SDS011;56427;51.580;4.656;2023-03-14T14:27:02;7.78;;;1.45;;
69305;SDS011;56427;51.580;4.656;2023-03-14T14:29:35;10.18;;;1.60;;
69305;SDS011;56427;51.580;4.656;2023-03-14T14:32:02;9.33;;;1.30;;
69305;SDS011;56427;51.580;4.656;2023-03-14T14:37:26;10.65;;;1.45;;
69305;SDS011;56427;51.580;4.656;2023-03-14T14:39:53;8.40;;;1.10;;
69305;SDS011;56427;51.580;4.656;2023-03-14T14:42:20;9.10;;;1.33;;
69305;SDS011;56427;51.580;4.656;2023-03-14T14:44:49;7.13;;;0.98;;
69305;SDS011;56427;51.580;4.656;2023-03-14T14:47:18;8.70;;;1.55;;
69305;SDS011;56427;51.580;4.656;2023-03-14T14:49:49;10.57;;;1.70;;
69305;SDS011;56427;51.580;4.656;2023-03-14T14:52:17;10.35;;;1.40;;
69305;SDS011;56427;51.580;4.656;2023-03-14T14:54:48;8.88;;;1.73;;
69305;SDS011;56427;51.580;4.656;2023-03-14T14:57:23;9.82;;;1.80;;
69305;SDS011;56427;51.580;4.656;2023-03-14T14:59:49;7.93;;;1.20;;
69305;SDS011;56427;51.580;4.656;2023-03-14T15:02:28;10.13;;;1.50;;
69305;SDS011;56427;51.580;4.656;2023-03-14T15:04:55;7.57;;;1.65;;
69305;SDS011;56427;51.580;4.656;2023-03-14T15:07:21;8.63;;;1.30;;
69305;SDS011;56427;51.580;4.656;2023-03-14T15:09:46;11.10;;;1.63;;
69305;SDS011;56427;51.580;4.656;2023-03-14T15:12:12;19.57;;;2.27;;
69305;SDS011;56427;51.580;4.656;2023-03-14T15:14:37;16.07;;;1.57;;
69305;SDS011;56427;51.580;4.656;2023-03-14T15:17:02;4.80;;;1.13;;
69305;SDS011;56427;51.580;4.656;2023-03-14T15:19:28;8.65;;;1.40;;
69305;SDS011;56427;51.580;4.656;2023-03-14T15:21:57;10.47;;;1.70;;
69305;SDS011;56427;51.580;4.656;2023-03-14T15:24:23;8.68;;;1.60;;
69305;SDS011;56427;51.580;4.656;2023-03-14T15:26:48;8.37;;;1.53;;
69305;SDS011;56427;51.580;4.656;2023-03-14T15:29:14;6.40;;;1.30;;
69305;SDS011;56427;51.580;4.656;2023-03-14T15:31:39;10.00;;;1.40;;
69305;SDS011;56427;51.580;4.656;2023-03-14T15:34:05;11.03;;;1.70;;
69305;SDS011;56427;51.580;4.656;2023-03-14T15:36:32;6.60;;;1.33;;
69305;SDS011;56427;51.580;4.656;2023-03-14T15:39:00;13.47;;;1.63;;
69305;SDS011;56427;51.580;4.656;2023-03-14T15:41:25;7.97;;;1.33;;
69305;SDS011;56427;51.580;4.656;2023-03-14T15:43:52;7.47;;;1.40;;
69305;SDS011;56427;51.580;4.656;2023-03-14T15:46:18;7.45;;;1.45;;
69305;SDS011;56427;51.580;4.656;2023-03-14T15:48:49;9.37;;;1.30;;
69305;SDS011;56427;51.580;4.656;2023-03-14T15:51:16;11.55;;;1.30;;
69305;SDS011;56427;51.580;4.656;2023-03-14T15:53:41;10.43;;;1.63;;
69305;SDS011;56427;51.580;4.656;2023-03-14T15:56:11;9.55;;;1.60;;
69305;SDS011;56427;51.580;4.656;2023-03-14T15:58:37;12.10;;;1.67;;
69305;SDS011;56427;51.580;4.656;2023-03-14T16:01:05;14.73;;;1.87;;